createdAt,value
2023-02-13T00:00:32.042Z,96.53
2023-02-13T00:02:48.512Z,96.36
2023-02-13T00:05:04.889Z,95.76
2023-02-13T00:07:21.740Z,96.37
2023-02-13T00:09:38.556Z,95.94
2023-02-13T00:11:55.263Z,96.08
2023-02-13T00:14:12.133Z,96.43
2023-02-13T00:16:28.925Z,96.23
2023-02-13T00:18:45.594Z,96.43
2023-02-13T00:21:02.051Z,96.17
2023-02-13T00:23:18.815Z,96.37
2023-02-13T00:25:35.533Z,95.84
2023-02-13T00:27:52.194Z,95.94
2023-02-13T00:30:08.786Z,96.06
2023-02-13T00:32:25.196Z,95.60
2023-02-13T00:34:41.707Z,95.58
2023-02-13T00:36:58.124Z,96.23
2023-02-13T00:39:14.511Z,95.35
2023-02-13T00:41:31.227Z,96.19
2023-02-13T00:43:47.828Z,95.47
2023-02-13T00:46:04.338Z,95.67
2023-02-13T00:48:20.713Z,95.54
2023-02-13T00:50:37.377Z,95.88
2023-02-13T00:52:54.056Z,95.51
2023-02-13T00:55:10.511Z,95.80
2023-02-13T00:57:26.988Z,95.62
2023-02-13T00:59:43.594Z,95.79
2023-02-13T01:02:00.128Z,95.57
2023-02-13T01:04:16.560Z,95.59
2023-02-13T01:06:33.147Z,95.43
2023-02-13T01:08:49.810Z,95.61
2023-02-13T01:11:06.129Z,95.42
2023-02-13T01:13:22.543Z,95.73
2023-02-13T01:15:39.038Z,95.53
2023-02-13T01:17:55.534Z,95.50
2023-02-13T01:20:12.202Z,95.19
2023-02-13T01:22:28.637Z,95.67
2023-02-13T01:24:45.057Z,95.37
2023-02-13T01:27:01.795Z,95.37
2023-02-13T01:29:18.295Z,95.40
2023-02-13T01:31:35.052Z,95.20
2023-02-13T01:33:51.425Z,94.81
2023-02-13T01:36:07.858Z,95.39
2023-02-13T01:38:24.344Z,95.55
2023-02-13T01:40:41.020Z,95.33
2023-02-13T01:42:57.574Z,95.12
2023-02-13T01:45:14.011Z,95.19
2023-02-13T01:47:30.717Z,94.56
2023-02-13T01:49:47.184Z,94.70
2023-02-13T01:52:03.810Z,94.95
2023-02-13T01:54:20.246Z,94.82
2023-02-13T01:56:36.743Z,94.53
2023-02-13T01:58:53.188Z,94.63
2023-02-13T02:01:09.659Z,94.91
2023-02-13T02:03:26.379Z,94.73
2023-02-13T02:05:42.913Z,94.68
2023-02-13T02:08:01.112Z,94.59
2023-02-13T02:10:17.430Z,94.85
2023-02-13T02:12:33.840Z,94.65
2023-02-13T02:14:50.314Z,94.73
2023-02-13T02:17:06.807Z,94.61
2023-02-13T02:19:23.515Z,94.23
2023-02-13T02:21:39.830Z,94.41
2023-02-13T02:23:56.287Z,94.49
2023-02-13T02:26:12.754Z,94.88
2023-02-13T02:28:29.320Z,94.53
2023-02-13T02:30:46.120Z,94.23
2023-02-13T02:33:02.640Z,94.69
2023-02-13T02:35:19.255Z,94.32
2023-02-13T02:37:35.584Z,94.43
2023-02-13T02:39:52.294Z,94.28
2023-02-13T02:42:08.725Z,94.26
2023-02-13T02:44:25.161Z,94.05
2023-02-13T02:46:41.932Z,93.96
2023-02-13T02:48:58.391Z,94.49
2023-02-13T02:51:15.061Z,94.03
2023-02-13T02:53:31.359Z,94.38
2023-02-13T02:55:47.816Z,94.23
2023-02-13T02:58:04.242Z,94.07
2023-02-13T03:00:20.669Z,93.87
2023-02-13T03:02:37.339Z,94.12
2023-02-13T03:04:53.813Z,93.91
2023-02-13T03:07:10.273Z,93.58
2023-02-13T03:09:26.646Z,93.77
2023-02-13T03:11:43.229Z,94.05
2023-02-13T03:13:59.898Z,93.53
2023-02-13T03:16:16.583Z,93.53
2023-02-13T03:18:33.015Z,93.53
2023-02-13T03:20:49.489Z,93.48
2023-02-13T03:23:06.165Z,93.58
2023-02-13T03:25:22.596Z,93.66
2023-02-13T03:27:39.328Z,93.47
2023-02-13T03:29:55.766Z,93.76
2023-02-13T03:32:12.391Z,93.77
2023-02-13T03:34:28.821Z,93.52
2023-02-13T03:36:45.296Z,93.60
2023-02-13T03:39:01.723Z,93.47
2023-02-13T03:41:18.020Z,93.40
2023-02-13T03:43:34.682Z,93.59
2023-02-13T03:45:51.255Z,93.25
2023-02-13T03:48:07.712Z,93.48
2023-02-13T03:50:24.076Z,93.80
2023-02-13T03:52:40.790Z,93.79
2023-02-13T03:54:57.548Z,93.30
2023-02-13T03:57:14.240Z,93.92
2023-02-13T03:59:30.731Z,93.54
2023-02-13T04:01:47.336Z,93.70
2023-02-13T04:04:04.069Z,93.71
2023-02-13T04:06:20.395Z,93.99
2023-02-13T04:08:36.820Z,93.59
2023-02-13T04:10:53.234Z,93.92
2023-02-13T04:13:09.693Z,93.82
2023-02-13T04:15:26.102Z,93.44
2023-02-13T04:17:42.728Z,93.68
2023-02-13T04:19:59.194Z,93.44
2023-02-13T04:22:15.883Z,93.49
2023-02-13T04:24:32.546Z,93.68
2023-02-13T04:29:22.928Z,93.65
2023-02-13T04:31:39.437Z,93.57
2023-02-13T04:33:55.899Z,93.71
2023-02-13T04:36:12.330Z,93.50
2023-02-13T04:38:28.870Z,93.74
2023-02-13T04:40:45.402Z,93.76
2023-02-13T04:43:02.099Z,93.40
2023-02-13T04:45:18.861Z,93.51
2023-02-13T04:47:35.505Z,93.50
2023-02-13T04:49:52.197Z,93.44
2023-02-13T04:52:08.880Z,93.38
2023-02-13T04:54:25.583Z,93.65
2023-02-13T04:56:42.340Z,93.46
2023-02-13T04:58:59.052Z,93.34
2023-02-13T05:01:15.510Z,93.04
2023-02-13T05:03:31.984Z,93.02
2023-02-13T05:05:48.780Z,93.28
2023-02-13T05:08:05.204Z,93.07
2023-02-13T05:10:21.835Z,92.82
2023-02-13T05:12:38.316Z,92.90
2023-02-13T05:14:54.985Z,93.13
2023-02-13T05:17:11.702Z,92.92
2023-02-13T05:19:28.365Z,92.90
2023-02-13T05:21:44.977Z,92.80
2023-02-13T05:24:01.471Z,92.54
2023-02-13T05:26:17.903Z,92.52
2023-02-13T05:28:34.369Z,92.61
2023-02-13T05:30:51.103Z,92.29
2023-02-13T05:33:07.854Z,92.39
2023-02-13T05:35:24.526Z,92.56
2023-02-13T05:37:40.954Z,93.00
2023-02-13T05:39:57.230Z,92.71
2023-02-13T05:42:13.931Z,92.84
2023-02-13T05:44:30.409Z,92.78
2023-02-13T05:46:47.181Z,93.02
2023-02-13T05:49:04.896Z,92.68
2023-02-13T05:51:21.614Z,92.98
2023-02-13T05:53:38.128Z,92.86
2023-02-13T05:55:54.613Z,92.73
2023-02-13T05:58:11.042Z,92.64
2023-02-13T06:00:27.727Z,92.68
2023-02-13T06:02:44.440Z,92.27
2023-02-13T06:05:01.142Z,92.82
2023-02-13T06:07:17.620Z,92.49
2023-02-13T06:09:34.108Z,92.77
2023-02-13T06:11:50.563Z,92.91
2023-02-13T06:14:06.968Z,93.00
2023-02-13T06:16:23.448Z,93.04
2023-02-13T06:18:40.142Z,93.06
2023-02-13T06:20:56.900Z,93.05
2023-02-13T06:23:13.524Z,92.81
2023-02-13T06:25:29.867Z,92.91
2023-02-13T06:27:46.355Z,93.00
2023-02-13T06:30:03.020Z,92.85
2023-02-13T06:32:19.548Z,93.09
2023-02-13T06:34:36.305Z,92.77
2023-02-13T06:36:52.834Z,92.66
2023-02-13T06:39:09.324Z,92.47
2023-02-13T06:41:26.078Z,93.04
2023-02-13T06:43:42.477Z,92.62
2023-02-13T06:45:58.925Z,93.01
2023-02-13T06:48:15.321Z,93.20
2023-02-13T06:50:31.968Z,92.83
2023-02-13T06:52:48.404Z,92.96
2023-02-13T06:55:05.175Z,92.72
2023-02-13T06:57:21.580Z,93.36
2023-02-13T06:59:37.994Z,92.65
2023-02-13T07:01:54.393Z,93.06
2023-02-13T07:04:10.801Z,92.81
2023-02-13T07:06:27.513Z,92.46
2023-02-13T07:08:44.242Z,93.16
2023-02-13T07:11:00.711Z,92.95
2023-02-13T07:13:17.596Z,93.14
2023-02-13T07:15:34.356Z,92.86
2023-02-13T07:17:50.801Z,92.86
2023-02-13T07:20:07.424Z,93.06
2023-02-13T07:22:24.148Z,92.85
2023-02-13T07:24:40.608Z,92.67
2023-02-13T07:26:57.151Z,92.87
2023-02-13T07:29:13.612Z,92.99
2023-02-13T07:31:30.242Z,93.31
2023-02-13T07:33:46.705Z,93.05
2023-02-13T07:36:03.149Z,92.79
2023-02-13T07:38:19.791Z,92.40
2023-02-13T07:40:37.540Z,92.90
2023-02-13T07:42:54.174Z,93.08
2023-02-13T07:45:10.498Z,92.44
2023-02-13T07:47:26.835Z,92.64
2023-02-13T07:49:43.511Z,92.45
2023-02-13T07:51:59.926Z,91.94
2023-02-13T07:54:16.605Z,92.34
2023-02-13T07:56:33.079Z,92.44
2023-02-13T07:58:49.557Z,92.23
2023-02-13T08:01:05.963Z,92.13
2023-02-13T08:03:22.645Z,92.22
2023-02-13T08:05:39.296Z,92.00
2023-02-13T08:07:56.011Z,91.95
2023-02-13T08:10:12.441Z,91.57
2023-02-13T08:12:28.935Z,91.28
2023-02-13T08:14:45.405Z,90.81
2023-02-13T08:17:02.140Z,91.11
2023-02-13T08:19:18.486Z,90.67
2023-02-13T08:21:35.175Z,90.61
2023-02-13T08:23:51.921Z,90.87
2023-02-13T08:26:08.668Z,90.45
2023-02-13T08:28:25.166Z,90.59
2023-02-13T08:30:41.544Z,90.18
2023-02-13T08:32:57.890Z,90.21
2023-02-13T08:35:14.403Z,89.85
2023-02-13T08:37:31.160Z,89.56
2023-02-13T08:39:47.812Z,89.67
2023-02-13T08:42:04.418Z,89.36
2023-02-13T08:44:21.204Z,89.48
2023-02-13T08:46:37.712Z,89.22
2023-02-13T08:48:54.452Z,89.30
2023-02-13T08:51:10.900Z,89.08
2023-02-13T08:53:27.296Z,89.05
2023-02-13T08:55:43.705Z,88.82
2023-02-13T08:58:00.139Z,89.07
2023-02-13T09:00:16.465Z,89.04
2023-02-13T09:02:32.892Z,89.16
2023-02-13T09:04:49.295Z,89.47
2023-02-13T09:07:05.719Z,88.83
2023-02-13T09:09:22.196Z,89.05
2023-02-13T09:11:38.682Z,88.94
2023-02-13T09:13:55.098Z,88.91
2023-02-13T09:16:11.449Z,88.78
2023-02-13T09:18:27.909Z,88.63
2023-02-13T09:20:44.611Z,88.40
2023-02-13T09:23:01.255Z,87.94
2023-02-13T09:25:17.748Z,87.89
2023-02-13T09:27:34.142Z,87.98
2023-02-13T09:29:50.852Z,87.40
2023-02-13T09:32:08.349Z,87.60
2023-02-13T09:34:24.806Z,87.77
2023-02-13T09:36:41.239Z,87.53
2023-02-13T09:38:58.140Z,87.31
2023-02-13T09:41:16.932Z,86.69
2023-02-13T09:43:33.812Z,87.10
2023-02-13T09:45:50.234Z,87.31
2023-02-13T09:48:06.846Z,86.36
2023-02-13T09:50:23.575Z,86.71
2023-02-13T09:52:40.354Z,86.09
2023-02-13T09:54:56.731Z,86.41
2023-02-13T09:57:13.439Z,85.59
2023-02-13T09:59:29.931Z,85.69
2023-02-13T10:01:46.687Z,84.34
2023-02-13T10:04:03.179Z,84.35
2023-02-13T10:06:19.742Z,83.80
2023-02-13T10:08:36.093Z,82.88
2023-02-13T10:10:52.593Z,83.06
2023-02-13T10:13:09.120Z,82.08
2023-02-13T10:15:25.703Z,82.31
2023-02-13T10:17:42.224Z,81.83
2023-02-13T10:19:58.599Z,81.30
2023-02-13T10:22:14.963Z,79.52
2023-02-13T10:24:31.456Z,78.72
2023-02-13T10:26:47.954Z,78.99
2023-02-13T10:29:04.483Z,77.42
2023-02-13T10:31:21.355Z,78.06
2023-02-13T10:33:37.805Z,76.43
2023-02-13T10:35:54.562Z,76.17
2023-02-13T10:38:11.213Z,76.31
2023-02-13T10:40:27.696Z,75.48
2023-02-13T10:42:44.509Z,76.20
2023-02-13T10:45:00.876Z,76.30
2023-02-13T10:47:17.576Z,74.99
2023-02-13T10:49:34.273Z,74.05
2023-02-13T10:51:50.866Z,74.71
2023-02-13T10:54:07.545Z,73.89
2023-02-13T10:56:24.059Z,72.55
2023-02-13T10:58:40.754Z,72.15
2023-02-13T11:00:57.298Z,72.02
2023-02-13T11:03:13.803Z,70.90
2023-02-13T11:05:30.263Z,71.41
2023-02-13T11:07:46.786Z,71.41
2023-02-13T11:10:03.563Z,71.08
2023-02-13T11:12:20.025Z,69.70
2023-02-13T11:14:36.748Z,70.12
2023-02-13T11:16:53.040Z,69.42
2023-02-13T11:19:09.597Z,68.14
2023-02-13T11:21:26.276Z,68.73
2023-02-13T11:23:42.856Z,68.37
2023-02-13T11:25:59.542Z,68.71
2023-02-13T11:28:16.504Z,67.61
2023-02-13T11:30:33.023Z,67.69
2023-02-13T11:32:49.571Z,67.49
2023-02-13T11:35:06.112Z,68.18
2023-02-13T11:37:22.624Z,67.96
2023-02-13T11:39:39.033Z,66.45
2023-02-13T11:41:55.506Z,65.18
2023-02-13T11:44:11.883Z,66.20
2023-02-13T11:46:28.454Z,66.81
2023-02-13T11:48:45.215Z,65.06
2023-02-13T11:51:02.023Z,64.65
2023-02-13T11:53:18.513Z,64.52
2023-02-13T11:55:34.851Z,64.97
2023-02-13T11:57:51.594Z,65.30
2023-02-13T12:00:08.363Z,65.41
2023-02-13T12:02:24.951Z,63.96
2023-02-13T12:04:41.765Z,63.87
2023-02-13T12:06:58.258Z,64.50
2023-02-13T12:09:14.625Z,62.82
2023-02-13T12:11:31.154Z,65.28
2023-02-13T12:13:47.654Z,64.54
2023-02-13T12:16:04.129Z,63.34
2023-02-13T12:18:20.648Z,60.80
2023-02-13T12:20:37.063Z,63.40
2023-02-13T12:22:53.536Z,62.14
2023-02-13T12:25:11.025Z,61.99
2023-02-13T12:27:27.496Z,62.84
2023-02-13T12:29:43.931Z,63.13
2023-02-13T12:32:00.504Z,61.14
2023-02-13T12:34:17.240Z,61.68
2023-02-13T12:36:33.974Z,61.29
2023-02-13T12:38:50.444Z,62.99
2023-02-13T12:41:06.999Z,63.31
2023-02-13T12:43:23.632Z,62.43
2023-02-13T12:45:41.015Z,62.20
2023-02-13T12:47:57.803Z,61.80
2023-02-13T12:50:14.331Z,61.64
2023-02-13T12:52:30.807Z,62.03
2023-02-13T12:54:47.541Z,61.14
2023-02-13T12:57:04.285Z,62.55
2023-02-13T12:59:21.092Z,62.80
2023-02-13T13:01:37.507Z,62.66
2023-02-13T13:03:53.995Z,62.47
2023-02-13T13:06:12.503Z,61.13
2023-02-13T13:08:29.237Z,61.96
2023-02-13T13:10:45.663Z,63.00
2023-02-13T13:13:02.388Z,61.08
2023-02-13T13:15:18.766Z,62.29
2023-02-13T13:17:35.245Z,60.14
2023-02-13T13:19:51.704Z,61.88
2023-02-13T13:22:08.398Z,62.90
2023-02-13T13:24:24.818Z,62.17
2023-02-13T13:26:41.627Z,62.87
2023-02-13T13:28:57.977Z,61.36
2023-02-13T13:31:14.548Z,62.28
2023-02-13T13:33:31.104Z,61.46
2023-02-13T13:35:47.822Z,61.59
2023-02-13T13:38:04.283Z,62.38
2023-02-13T13:40:20.909Z,63.38
2023-02-13T13:42:37.615Z,61.93
2023-02-13T13:44:54.082Z,61.78
2023-02-13T13:47:10.505Z,63.35
2023-02-13T13:49:27.143Z,61.08
2023-02-13T13:51:43.652Z,61.02
2023-02-13T13:54:00.134Z,61.96
2023-02-13T13:56:16.920Z,63.64
2023-02-13T13:58:33.587Z,62.75
2023-02-13T14:00:50.305Z,61.29
2023-02-13T14:03:07.016Z,62.29
2023-02-13T14:05:23.458Z,61.83
2023-02-13T14:07:39.890Z,62.92
2023-02-13T14:09:56.610Z,63.42
2023-02-13T14:12:13.216Z,64.17
2023-02-13T14:14:30.020Z,63.79
2023-02-13T14:16:46.688Z,63.78
2023-02-13T14:19:03.430Z,65.13
2023-02-13T14:21:20.880Z,63.86
2023-02-13T14:23:37.519Z,63.74
2023-02-13T14:25:54.260Z,63.91
2023-02-13T14:28:11.011Z,64.21
2023-02-13T14:30:27.588Z,64.18
2023-02-13T14:32:44.355Z,65.10
2023-02-13T14:35:01.160Z,65.19
2023-02-13T14:37:20.147Z,65.04
2023-02-13T14:39:36.692Z,64.63
2023-02-13T14:41:53.388Z,63.67
2023-02-13T14:44:11.101Z,65.24
2023-02-13T14:46:27.759Z,65.79
2023-02-13T14:48:44.230Z,65.81
2023-02-13T14:51:01.212Z,65.88
2023-02-13T14:53:17.869Z,65.59
2023-02-13T14:55:34.540Z,65.73
2023-02-13T14:57:51.294Z,65.95
2023-02-13T15:00:07.637Z,65.63
2023-02-13T15:02:24.109Z,66.18
2023-02-13T15:04:40.945Z,66.14
2023-02-13T15:06:57.436Z,67.38
2023-02-13T15:09:14.182Z,67.19
2023-02-13T15:11:30.887Z,66.67
2023-02-13T15:13:47.625Z,67.42
2023-02-13T15:16:04.325Z,68.68
2023-02-13T15:18:20.946Z,67.74
2023-02-13T15:20:37.629Z,67.20
2023-02-13T15:22:54.134Z,66.86
2023-02-13T15:25:10.648Z,67.96
2023-02-13T15:27:27.470Z,68.61
2023-02-13T15:29:49.815Z,67.67
2023-02-13T15:32:06.864Z,69.11
2023-02-13T15:34:23.718Z,68.99
2023-02-13T15:36:40.430Z,69.56
2023-02-13T15:38:57.137Z,69.58
2023-02-13T15:41:13.811Z,70.64
2023-02-13T15:43:30.600Z,69.71
2023-02-13T15:45:47.086Z,70.10
2023-02-13T15:48:03.824Z,70.28
2023-02-13T15:50:20.323Z,71.56
2023-02-13T15:52:36.833Z,71.14
2023-02-13T15:54:53.509Z,72.87
2023-02-13T15:57:10.033Z,72.16
2023-02-13T15:59:26.743Z,72.42
2023-02-13T16:01:43.574Z,73.47
2023-02-13T16:04:00.370Z,74.12
2023-02-13T16:06:16.866Z,74.62
2023-02-13T16:08:33.652Z,75.21
2023-02-13T16:10:50.403Z,76.79
2023-02-13T16:13:06.916Z,77.07
2023-02-13T16:15:23.468Z,77.70
2023-02-13T16:17:39.870Z,78.28
2023-02-13T16:19:56.656Z,77.42
2023-02-13T16:22:13.017Z,78.78
2023-02-13T16:24:29.457Z,78.23
2023-02-13T16:26:45.964Z,78.89
2023-02-13T16:29:02.758Z,78.93
2023-02-13T16:31:19.634Z,79.18
2023-02-13T16:33:36.484Z,79.73
2023-02-13T16:35:53.015Z,80.33
2023-02-13T16:38:09.611Z,79.88
2023-02-13T16:40:26.113Z,80.37
2023-02-13T16:42:42.555Z,80.89
2023-02-13T16:44:59.313Z,80.95
2023-02-13T16:47:15.708Z,81.04
2023-02-13T16:49:32.541Z,81.11
2023-02-13T16:51:49.026Z,80.61
2023-02-13T16:54:05.789Z,81.77
2023-02-13T16:56:22.315Z,81.79
2023-02-13T16:58:38.783Z,81.96
2023-02-13T17:00:55.552Z,82.07
2023-02-13T17:03:12.343Z,82.38
2023-02-13T17:05:28.798Z,82.98
2023-02-13T17:07:45.630Z,82.57
2023-02-13T17:10:02.489Z,82.91
2023-02-13T17:12:19.333Z,82.70
2023-02-13T17:14:35.783Z,83.26
2023-02-13T17:16:52.506Z,83.24
2023-02-13T17:19:09.188Z,83.03
2023-02-13T17:21:25.974Z,83.73
2023-02-13T17:23:42.724Z,83.79
2023-02-13T17:25:59.091Z,83.88
2023-02-13T17:28:15.797Z,83.95
2023-02-13T17:30:32.552Z,83.94
2023-02-13T17:32:49.274Z,84.61
2023-02-13T17:35:05.753Z,84.06
2023-02-13T17:37:22.405Z,84.42
2023-02-13T17:39:38.817Z,84.04
2023-02-13T17:41:55.495Z,84.47
2023-02-13T17:44:11.966Z,84.38
2023-02-13T17:46:28.479Z,85.00
2023-02-13T17:48:44.954Z,84.05
2023-02-13T17:51:01.718Z,84.82
2023-02-13T17:53:18.578Z,84.44
2023-02-13T17:55:35.137Z,85.55
2023-02-13T17:57:51.933Z,85.70
2023-02-13T18:00:08.663Z,86.07
2023-02-13T18:02:25.255Z,85.48
2023-02-13T18:04:41.757Z,85.67
2023-02-13T18:06:58.329Z,85.19
2023-02-13T18:09:15.049Z,85.66
2023-02-13T18:11:31.819Z,85.26
2023-02-13T18:13:48.533Z,85.49
2023-02-13T18:16:05.119Z,85.92
2023-02-13T18:18:21.699Z,85.58
2023-02-13T18:20:38.072Z,85.63
2023-02-13T18:22:55.967Z,85.06
2023-02-13T18:25:12.771Z,85.13
2023-02-13T18:27:29.289Z,85.73
2023-02-13T18:29:46.123Z,86.19
2023-02-13T18:32:02.773Z,86.39
2023-02-13T18:34:19.207Z,86.00
2023-02-13T18:36:36.804Z,86.99
2023-02-13T18:38:53.162Z,86.70
2023-02-13T18:41:10.253Z,87.00
2023-02-13T18:43:26.968Z,86.88
2023-02-13T18:45:43.647Z,87.35
2023-02-13T18:48:00.424Z,87.38
2023-02-13T18:50:17.097Z,87.47
2023-02-13T18:52:33.401Z,87.72
2023-02-13T18:54:49.878Z,87.09
2023-02-13T18:57:06.343Z,87.14
2023-02-13T18:59:23.049Z,86.83
2023-02-13T19:01:39.503Z,87.76
2023-02-13T19:03:55.996Z,86.20
2023-02-13T19:06:12.514Z,86.95
2023-02-13T19:08:28.992Z,86.56
2023-02-13T19:10:45.726Z,86.65
2023-02-13T19:13:02.487Z,87.55
2023-02-13T19:15:18.848Z,86.81
2023-02-13T19:17:35.182Z,87.21
2023-02-13T19:19:51.634Z,87.14
2023-02-13T19:22:08.171Z,86.68
2023-02-13T19:24:24.875Z,87.07
2023-02-13T19:26:41.510Z,87.38
2023-02-13T19:28:57.977Z,87.60
2023-02-13T19:31:14.576Z,87.93
2023-02-13T19:33:31.358Z,87.88
2023-02-13T19:35:48.045Z,87.04
2023-02-13T19:38:04.410Z,87.62
2023-02-13T19:40:21.234Z,88.27
2023-02-13T19:42:40.035Z,88.56
2023-02-13T19:44:56.772Z,88.61
2023-02-13T19:47:13.457Z,88.64
2023-02-13T19:49:29.929Z,88.72
2023-02-13T19:51:46.175Z,87.96
2023-02-13T19:54:02.880Z,88.22
2023-02-13T19:56:19.363Z,88.37
2023-02-13T19:58:35.932Z,88.47
2023-02-13T20:00:52.384Z,88.59
2023-02-13T20:03:08.854Z,88.09
2023-02-13T20:05:25.658Z,88.66
2023-02-13T20:07:43.247Z,87.84
2023-02-13T20:09:59.598Z,87.97
2023-02-13T20:12:18.458Z,88.08
2023-02-13T20:14:35.126Z,88.36
2023-02-13T20:16:51.620Z,88.55
2023-02-13T20:19:08.095Z,89.13
2023-02-13T20:21:24.785Z,88.70
2023-02-13T20:23:41.230Z,89.18
2023-02-13T20:25:57.775Z,88.53
2023-02-13T20:28:14.141Z,88.69
2023-02-13T20:30:30.706Z,88.48
2023-02-13T20:32:47.291Z,88.73
2023-02-13T20:35:04.012Z,88.55
2023-02-13T20:37:21.727Z,88.52
2023-02-13T20:39:40.556Z,88.38
2023-02-13T20:41:58.059Z,88.15
2023-02-13T20:44:14.862Z,88.50
2023-02-13T20:46:31.185Z,88.48
2023-02-13T20:48:47.986Z,89.04
2023-02-13T20:51:04.537Z,88.37
2023-02-13T20:53:21.292Z,88.93
2023-02-13T20:55:37.718Z,88.37
2023-02-13T20:57:54.098Z,88.18
2023-02-13T21:00:10.555Z,88.48
2023-02-13T21:02:27.394Z,88.82
2023-02-13T21:04:43.780Z,88.34
2023-02-13T21:07:00.330Z,89.05
2023-02-13T21:09:16.827Z,88.71
2023-02-13T21:11:33.474Z,89.56
2023-02-13T21:13:49.958Z,89.22
2023-02-13T21:16:06.719Z,89.39
2023-02-13T21:18:23.279Z,89.28
2023-02-13T21:20:40.056Z,88.91
2023-02-13T21:22:56.756Z,89.22
2023-02-13T21:25:13.728Z,89.40
2023-02-13T21:27:30.233Z,89.33
2023-02-13T21:29:47.005Z,89.14
2023-02-13T21:32:03.868Z,89.31
2023-02-13T21:34:20.639Z,89.82
2023-02-13T21:36:37.432Z,89.37
2023-02-13T21:38:55.227Z,89.33
2023-02-13T21:41:11.921Z,89.53
2023-02-13T21:43:28.699Z,89.57
2023-02-13T21:45:45.597Z,89.33
2023-02-13T21:48:02.170Z,89.34
2023-02-13T21:50:18.660Z,89.60
2023-02-13T21:52:34.932Z,89.40
2023-02-13T21:54:51.348Z,89.65
2023-02-13T21:57:07.803Z,89.65
2023-02-13T21:59:25.652Z,89.67
2023-02-13T22:01:42.397Z,89.82
2023-02-13T22:04:00.819Z,89.51
2023-02-13T22:06:18.007Z,89.55
2023-02-13T22:08:34.722Z,89.50
2023-02-13T22:10:51.153Z,89.91
2023-02-13T22:13:10.213Z,89.88
2023-02-13T22:15:26.629Z,90.09
2023-02-13T22:17:42.990Z,89.88
2023-02-13T22:20:00.715Z,89.91
2023-02-13T22:22:17.395Z,90.00
2023-02-13T22:24:34.172Z,89.80
2023-02-13T22:26:50.889Z,89.58
2023-02-13T22:29:07.336Z,89.59
2023-02-13T22:31:25.794Z,90.02
2023-02-13T22:33:47.449Z,90.10
2023-02-13T22:36:06.562Z,90.21
2023-02-13T22:38:23.044Z,90.26
2023-02-13T22:40:39.741Z,90.08
2023-02-13T22:42:56.887Z,90.38
2023-02-13T22:45:13.464Z,90.22
2023-02-13T22:47:30.076Z,90.26
2023-02-13T22:49:46.803Z,90.32
2023-02-13T22:52:03.525Z,90.06
2023-02-13T22:54:19.977Z,90.08
2023-02-13T22:56:36.390Z,90.04
2023-02-13T22:58:52.776Z,90.33
2023-02-13T23:01:09.236Z,90.12
2023-02-13T23:03:25.978Z,89.94
2023-02-13T23:05:42.626Z,89.69
2023-02-13T23:07:59.289Z,89.99
2023-02-13T23:10:15.746Z,89.78
2023-02-13T23:12:32.195Z,89.75
2023-02-13T23:14:48.632Z,90.24
2023-02-13T23:17:05.311Z,89.83
2023-02-13T23:19:21.847Z,90.00
2023-02-13T23:21:38.337Z,90.02
2023-02-13T23:23:55.076Z,89.89
2023-02-13T23:26:11.578Z,89.83
2023-02-13T23:28:28.366Z,90.10
2023-02-13T23:30:45.204Z,89.96
2023-02-13T23:33:01.906Z,90.23
2023-02-13T23:35:18.322Z,90.92
2023-02-13T23:37:35.045Z,90.82
2023-02-13T23:39:51.498Z,90.29
2023-02-13T23:42:07.998Z,90.79
2023-02-13T23:44:24.636Z,90.30
2023-02-13T23:46:41.101Z,90.62
2023-02-13T23:48:57.650Z,89.76
2023-02-13T23:51:14.086Z,90.04
2023-02-13T23:53:30.772Z,89.72
2023-02-13T23:55:47.497Z,89.73
2023-02-13T23:58:03.959Z,90.16
